Rickenbacker AFB, Ohio
Current Conditions -  °F | °C
As of 8:55 PM on Friday 24 Oct 2014 (Local Time) from KLCK Reporting Station
Clear Clear  
Wind Chill: 51°   Ceiling: Unl
Heat Index: 51°   Visibility: 10mi
Dew Point: 38°   Wind: 3mph
Humidity: 62%   Direction: 210°SSW
Pressure: 30.03"   Gusts: NA
Location:  39.8164°N, 82.9345°W
Report Text: KLCK 250055Z AUTO 21003KT 10SM CLR 10/04 A3003 RMK AO2 T01040035
Loading
Personal Weather Stations






























Interactive Weather Map
Tropical Storm Tracking
New forecast layout! Learn more

10-Day Weather Forecast

Advertisements
Track Severe Weather on mobile